createdAt,value
2023-02-11T00:01:21.749Z,39.80
2023-02-11T00:07:08.751Z,36.50
2023-02-11T00:10:02.902Z,43.90
2023-02-11T00:12:55.797Z,45.20
2023-02-11T00:15:48.882Z,40.50
2023-02-11T00:18:44.704Z,44.00
2023-02-11T00:21:37.552Z,41.20
2023-02-11T00:24:32.091Z,43.40
2023-02-11T00:27:24.802Z,44.50
2023-02-11T00:30:17.835Z,40.30
2023-02-11T00:33:10.633Z,42.80
2023-02-11T00:36:08.171Z,44.40
2023-02-11T00:39:04.447Z,45.80
2023-02-11T00:41:57.177Z,41.30
2023-02-11T00:44:50.423Z,42.10
2023-02-11T00:47:36.448Z,41.30
2023-02-11T00:50:29.702Z,40.80
2023-02-11T00:53:22.439Z,37.10
2023-02-11T00:56:15.253Z,40.30
2023-02-11T00:59:08.264Z,39.60
2023-02-11T01:02:01.566Z,46.30
2023-02-11T01:04:54.406Z,41.20
2023-02-11T01:07:48.382Z,41.10
2023-02-11T01:10:41.449Z,37.00
2023-02-11T01:13:37.324Z,39.70
2023-02-11T01:16:30.246Z,41.30
2023-02-11T01:19:23.015Z,39.20
2023-02-11T01:22:15.839Z,39.30
2023-02-11T01:25:09.451Z,41.00
2023-02-11T01:28:03.169Z,43.20
2023-02-11T01:30:48.857Z,40.30
2023-02-11T01:33:42.000Z,39.30
2023-02-11T01:36:34.840Z,33.50
2023-02-11T01:39:28.011Z,36.90
2023-02-11T01:42:23.585Z,38.50
2023-02-11T01:45:54.936Z,39.10
2023-02-11T01:48:53.341Z,36.20
2023-02-11T01:51:49.903Z,39.30
2023-02-11T01:55:05.157Z,37.20
2023-02-11T01:58:02.421Z,40.30
2023-02-11T02:00:57.718Z,39.30
2023-02-11T02:03:54.016Z,39.80
2023-02-11T02:06:51.143Z,35.80
2023-02-11T02:09:57.737Z,41.00
2023-02-11T02:12:50.878Z,35.80
2023-02-11T02:15:37.602Z,37.60
2023-02-11T02:18:45.296Z,38.00
2023-02-11T02:22:10.526Z,37.60
2023-02-11T02:25:21.017Z,36.80
2023-02-11T02:28:39.096Z,38.60
2023-02-11T02:31:53.703Z,35.60
2023-02-11T02:34:52.470Z,36.00
2023-02-11T02:37:53.917Z,40.00
2023-02-11T02:40:55.880Z,40.00
2023-02-11T02:43:51.850Z,40.10
2023-02-11T02:46:38.464Z,40.20
2023-02-11T02:49:33.125Z,37.60
2023-02-11T02:52:40.643Z,38.90
2023-02-11T02:55:54.199Z,40.20
2023-02-11T02:59:22.179Z,39.30
2023-02-11T03:02:23.182Z,40.90
2023-02-11T03:05:31.499Z,41.70
2023-02-11T03:08:31.285Z,40.80
2023-02-11T03:11:25.900Z,40.40
2023-02-11T03:14:20.675Z,43.30
2023-02-11T03:17:15.569Z,39.70
2023-02-11T03:20:12.497Z,41.50
2023-02-11T03:23:06.256Z,39.90
2023-02-11T03:26:11.885Z,40.50
2023-02-11T03:29:15.668Z,43.00
2023-02-11T03:32:09.480Z,40.70
2023-02-11T03:35:05.659Z,44.60
2023-02-11T03:38:02.034Z,43.20
2023-02-11T03:40:57.061Z,41.40
2023-02-11T03:43:55.849Z,41.90
2023-02-11T03:46:52.972Z,41.80
2023-02-11T03:49:37.493Z,43.00
2023-02-11T03:52:30.706Z,43.90
2023-02-11T03:55:20.218Z,44.30
2023-02-11T03:58:13.517Z,44.80
2023-02-11T04:01:09.920Z,46.00
2023-02-11T04:04:02.749Z,45.90
2023-02-11T04:06:48.406Z,43.70
2023-02-11T04:09:41.737Z,40.90
2023-02-11T04:12:34.838Z,44.60
2023-02-11T04:15:28.118Z,43.80
2023-02-11T04:18:20.928Z,44.00
2023-02-11T04:21:01.075Z,43.50
2023-02-11T04:23:53.852Z,42.50
2023-02-11T04:26:46.836Z,44.50
2023-02-11T04:29:40.241Z,43.30
2023-02-11T04:32:33.386Z,45.50
2023-02-11T04:35:26.145Z,43.50
2023-02-11T04:38:19.024Z,42.50
2023-02-11T04:41:11.885Z,44.60
2023-02-11T04:44:04.886Z,44.50
2023-02-11T04:46:57.677Z,42.40
2023-02-11T04:49:50.476Z,42.20
2023-02-11T04:52:43.366Z,44.90
2023-02-11T04:55:36.539Z,43.50
2023-02-11T04:58:29.430Z,43.60
2023-02-11T05:01:22.338Z,43.90
2023-02-11T05:04:15.672Z,42.00
2023-02-11T05:07:08.564Z,43.40
2023-02-11T05:10:01.559Z,46.00
2023-02-11T05:12:56.028Z,45.70
2023-02-11T05:15:50.148Z,44.50
2023-02-11T05:18:44.538Z,42.60
2023-02-11T05:21:37.741Z,41.80
2023-02-11T05:24:30.634Z,43.70
2023-02-11T05:27:24.441Z,44.30
2023-02-11T05:30:17.913Z,43.50
2023-02-11T05:33:10.750Z,42.40
2023-02-11T05:36:06.077Z,45.40
2023-02-11T05:38:58.930Z,43.90
2023-02-11T05:41:51.815Z,42.80
2023-02-11T05:44:45.255Z,42.10
2023-02-11T05:47:30.621Z,43.00
2023-02-11T05:50:16.042Z,43.40
2023-02-11T05:53:08.891Z,46.30
2023-02-11T05:56:01.960Z,46.50
2023-02-11T05:58:54.900Z,45.40
2023-02-11T06:01:47.669Z,46.40
2023-02-11T06:04:40.592Z,46.50
2023-02-11T06:07:33.528Z,46.60
2023-02-11T06:10:26.273Z,47.00
2023-02-11T06:13:19.850Z,44.50
2023-02-11T06:16:12.711Z,44.80
2023-02-11T06:19:05.815Z,46.50
2023-02-11T06:21:58.772Z,46.20
2023-02-11T06:25:01.382Z,47.00
2023-02-11T06:27:54.742Z,48.20
2023-02-11T06:30:41.391Z,46.60
2023-02-11T06:33:34.616Z,43.60
2023-02-11T06:36:27.825Z,44.60
2023-02-11T06:39:20.733Z,46.70
2023-02-11T06:42:08.023Z,44.90
2023-02-11T06:44:54.191Z,46.90
2023-02-11T06:47:46.975Z,47.40
2023-02-11T06:50:39.734Z,47.60
2023-02-11T06:53:32.794Z,48.20
2023-02-11T06:56:28.235Z,46.10
2023-02-11T06:59:14.283Z,45.10
2023-02-11T07:02:07.223Z,45.90
2023-02-11T07:04:56.754Z,47.80
2023-02-11T07:07:49.676Z,43.70
2023-02-11T07:10:42.885Z,45.90
2023-02-11T07:13:36.496Z,42.00
2023-02-11T07:16:21.055Z,44.80
2023-02-11T07:19:14.229Z,43.80
2023-02-11T07:21:49.986Z,53.50
2023-02-11T07:24:25.070Z,54.80
2023-02-11T07:27:18.186Z,45.70
2023-02-11T07:30:16.583Z,44.70
2023-02-11T07:33:09.695Z,47.60
2023-02-11T07:36:05.356Z,46.20
2023-02-11T07:38:58.539Z,49.80
2023-02-11T07:41:47.918Z,47.80
2023-02-11T07:44:40.850Z,49.40
2023-02-11T07:47:35.781Z,48.10
2023-02-11T07:50:19.750Z,49.20
2023-02-11T07:53:11.710Z,46.30
2023-02-11T07:56:06.090Z,48.30
2023-02-11T08:01:44.808Z,47.30
2023-02-11T08:04:38.289Z,44.00
2023-02-11T08:07:31.337Z,44.80
2023-02-11T08:10:27.359Z,48.00
2023-02-11T08:13:20.269Z,47.00
2023-02-11T08:16:21.641Z,46.10
2023-02-11T08:19:17.117Z,43.20
2023-02-11T08:22:10.061Z,44.30
2023-02-11T08:25:06.249Z,43.60
2023-02-11T08:27:57.886Z,45.70
2023-02-11T08:30:33.103Z,45.50
2023-02-11T08:33:16.057Z,45.60
2023-02-11T08:36:14.080Z,46.00
2023-02-11T08:42:09.250Z,43.40
2023-02-11T08:45:02.255Z,43.70
2023-02-11T08:47:48.077Z,41.70
2023-02-11T08:50:28.199Z,45.00
2023-02-11T08:53:21.121Z,45.60
2023-02-11T08:55:55.847Z,44.80
2023-02-11T08:58:49.032Z,45.20
2023-02-11T09:01:43.623Z,45.20
2023-02-11T09:04:36.675Z,44.70
2023-02-11T09:07:32.878Z,47.70
2023-02-11T09:10:25.929Z,43.00
2023-02-11T09:13:21.566Z,43.00
2023-02-11T09:16:06.994Z,43.10
2023-02-11T09:19:02.365Z,42.30
2023-02-11T09:21:54.046Z,42.10
2023-02-11T09:24:37.027Z,44.30
2023-02-11T09:27:31.367Z,44.00
2023-02-11T09:30:24.954Z,43.60
2023-02-11T09:33:17.913Z,44.80
2023-02-11T09:36:12.039Z,42.30
2023-02-11T09:39:06.606Z,43.10
2023-02-11T09:42:22.001Z,44.60
2023-02-11T09:45:20.412Z,45.90
2023-02-11T09:50:41.452Z,43.70
2023-02-11T09:53:29.929Z,44.10
2023-02-11T09:56:23.171Z,45.00
2023-02-11T09:59:17.755Z,43.00
2023-02-11T10:02:17.655Z,44.60
2023-02-11T10:05:35.194Z,44.70
2023-02-11T10:08:28.689Z,45.60
2023-02-11T10:11:32.088Z,45.90
2023-02-11T10:14:21.296Z,43.60
2023-02-11T10:17:22.735Z,40.60
2023-02-11T10:20:26.404Z,38.20
2023-02-11T10:23:22.508Z,41.00
2023-02-11T10:26:20.759Z,42.70
2023-02-11T10:29:00.901Z,41.90
2023-02-11T10:31:57.929Z,40.50
2023-02-11T10:34:52.091Z,43.60
2023-02-11T10:37:45.753Z,42.70
2023-02-11T10:40:39.361Z,42.60
2023-02-11T10:43:36.328Z,46.50
2023-02-11T10:46:33.578Z,45.20
2023-02-11T10:49:42.307Z,42.50
2023-02-11T10:52:35.146Z,44.30
2023-02-11T10:55:30.126Z,42.30
2023-02-11T10:58:33.295Z,39.90
2023-02-11T11:01:38.696Z,41.50
2023-02-11T11:04:45.116Z,43.10
2023-02-11T11:07:39.690Z,39.20
2023-02-11T11:10:44.618Z,38.90
2023-02-11T11:13:40.077Z,42.00
2023-02-11T11:16:28.349Z,42.60
2023-02-11T11:19:25.338Z,41.40
2023-02-11T11:22:24.898Z,41.80
2023-02-11T11:25:30.696Z,43.10
2023-02-11T11:28:26.544Z,39.10
2023-02-11T11:31:23.425Z,38.70
2023-02-11T11:34:31.036Z,38.30
2023-02-11T11:37:27.955Z,38.20
2023-02-11T11:40:29.143Z,40.00
2023-02-11T11:43:23.924Z,42.20
2023-02-11T11:46:07.801Z,40.10
2023-02-11T11:48:53.209Z,44.40
2023-02-11T11:51:43.552Z,52.90
2023-02-11T11:54:26.537Z,46.30
2023-02-11T11:57:24.380Z,46.20
2023-02-11T12:00:22.222Z,45.60
2023-02-11T12:03:29.293Z,60.00
2023-02-11T12:06:33.785Z,50.00
2023-02-11T12:09:34.013Z,43.60
2023-02-11T12:12:40.889Z,44.80
2023-02-11T12:15:36.480Z,44.80
2023-02-11T12:18:38.645Z,52.80
2023-02-11T12:21:55.484Z,71.80
2023-02-11T12:25:10.053Z,52.80
2023-02-11T12:28:09.061Z,66.70
2023-02-11T12:31:15.341Z,62.70
2023-02-11T12:34:27.263Z,56.90
2023-02-11T12:37:43.944Z,55.80
2023-02-11T12:40:26.647Z,57.10
2023-02-11T12:43:25.798Z,52.40
2023-02-11T12:46:43.523Z,53.10
2023-02-11T12:49:55.903Z,52.00
2023-02-11T12:53:19.210Z,51.90
2023-02-11T12:56:18.952Z,43.30
2023-02-11T12:59:18.755Z,42.70
2023-02-11T13:02:13.516Z,42.00
2023-02-11T13:05:19.995Z,49.20
2023-02-11T13:08:17.685Z,44.00
2023-02-11T13:11:15.165Z,50.60
2023-02-11T13:14:17.896Z,45.10
2023-02-11T13:17:21.293Z,49.10
2023-02-11T13:20:27.668Z,47.30
2023-02-11T13:23:24.582Z,51.80
2023-02-11T13:26:25.020Z,46.80
2023-02-11T13:29:33.346Z,45.40
2023-02-11T13:32:19.088Z,47.80
2023-02-11T13:35:06.082Z,57.00
2023-02-11T13:38:00.409Z,52.80
2023-02-11T13:41:04.482Z,52.50
2023-02-11T13:44:27.411Z,81.80
2023-02-11T13:47:43.122Z,48.00
2023-02-11T13:50:40.950Z,48.10
2023-02-11T13:53:45.739Z,47.40
2023-02-11T13:56:41.230Z,52.60
2023-02-11T13:59:51.500Z,48.30
2023-02-11T14:03:01.852Z,56.40
2023-02-11T14:06:30.774Z,52.60
2023-02-11T14:09:40.083Z,58.50
2023-02-11T14:12:36.224Z,53.10
2023-02-11T14:16:04.545Z,54.50
2023-02-11T14:19:04.567Z,52.10
2023-02-11T14:22:06.021Z,49.80
2023-02-11T14:25:02.193Z,53.30
2023-02-11T14:27:59.332Z,51.10
2023-02-11T14:31:05.179Z,56.90
2023-02-11T14:34:24.347Z,57.30
2023-02-11T14:37:33.097Z,51.30
2023-02-11T14:40:33.452Z,55.10
2023-02-11T14:43:30.704Z,53.50
2023-02-11T14:46:27.785Z,52.40
2023-02-11T14:49:29.782Z,53.40
2023-02-11T14:52:30.396Z,57.00
2023-02-11T14:55:34.650Z,59.80
2023-02-11T14:58:29.675Z,65.20
2023-02-11T15:01:35.429Z,70.40
2023-02-11T15:04:30.282Z,64.40
2023-02-11T15:07:23.652Z,58.20
2023-02-11T15:10:25.898Z,58.20
2023-02-11T15:13:27.303Z,64.70
2023-02-11T15:16:23.817Z,62.90
2023-02-11T15:19:25.736Z,58.50
2023-02-11T15:22:25.038Z,60.00
2023-02-11T15:25:20.040Z,70.50
2023-02-11T15:28:26.058Z,63.80
2023-02-11T15:31:21.166Z,65.00
2023-02-11T15:34:11.608Z,62.30
2023-02-11T15:36:54.731Z,58.40
2023-02-11T15:39:47.813Z,60.00
2023-02-11T15:42:52.595Z,58.50
2023-02-11T15:45:55.447Z,62.20
2023-02-11T15:48:44.127Z,59.40
2023-02-11T15:51:42.527Z,60.50
2023-02-11T15:54:34.674Z,59.00
2023-02-11T15:57:27.816Z,60.10
2023-02-11T16:00:23.500Z,61.00
2023-02-11T16:03:09.455Z,65.20
2023-02-11T16:06:24.145Z,65.10
2023-02-11T16:09:33.531Z,64.80
2023-02-11T16:12:29.353Z,67.80
2023-02-11T16:15:48.351Z,64.10
2023-02-11T16:18:52.033Z,63.10
2023-02-11T16:21:49.214Z,64.00
2023-02-11T16:24:42.920Z,60.90
2023-02-11T16:27:40.073Z,62.50
2023-02-11T16:30:38.454Z,61.20
2023-02-11T16:33:31.746Z,62.20
2023-02-11T16:36:18.616Z,64.20
2023-02-11T16:39:12.068Z,58.60
2023-02-11T16:42:07.438Z,58.80
2023-02-11T16:45:00.358Z,62.10
2023-02-11T16:47:44.480Z,72.30
2023-02-11T16:50:38.034Z,72.80
2023-02-11T16:53:26.616Z,81.40
2023-02-11T16:56:19.742Z,91.70
2023-02-11T16:59:13.186Z,82.00
2023-02-11T17:02:00.681Z,68.80
2023-02-11T17:04:48.204Z,69.10
2023-02-11T17:07:41.296Z,66.90
2023-02-11T17:10:37.892Z,64.90
2023-02-11T17:13:30.861Z,63.80
2023-02-11T17:16:27.782Z,64.30
2023-02-11T17:19:22.302Z,63.10
2023-02-11T17:22:15.361Z,64.50
2023-02-11T17:25:09.453Z,63.50
2023-02-11T17:28:02.437Z,71.30
2023-02-11T17:30:55.439Z,72.80
2023-02-11T17:33:48.792Z,71.50
2023-02-11T17:36:42.077Z,74.70
2023-02-11T17:39:35.110Z,69.80
2023-02-11T17:42:29.450Z,73.40
2023-02-11T17:45:22.622Z,67.30
2023-02-11T17:48:16.075Z,69.10
2023-02-11T17:51:00.552Z,72.50
2023-02-11T17:53:43.420Z,70.10
2023-02-11T17:56:26.391Z,67.70
2023-02-11T17:59:19.807Z,66.80
2023-02-11T18:02:14.405Z,64.70
2023-02-11T18:05:08.087Z,66.60
2023-02-11T18:08:01.384Z,71.10
2023-02-11T18:10:54.319Z,70.90
2023-02-11T18:13:54.832Z,70.70
2023-02-11T18:16:50.649Z,66.60
2023-02-11T18:19:43.643Z,72.90
2023-02-11T18:22:40.219Z,94.30
2023-02-11T18:25:33.504Z,66.80
2023-02-11T18:28:26.641Z,65.00
2023-02-11T18:31:22.031Z,66.50
2023-02-11T18:34:17.255Z,63.60
2023-02-11T18:37:10.413Z,61.80
2023-02-11T18:39:47.338Z,63.70
2023-02-11T18:42:40.372Z,72.80
2023-02-11T18:45:34.215Z,79.80
2023-02-11T18:48:09.822Z,72.80
2023-02-11T18:51:02.617Z,65.00
2023-02-11T18:53:55.908Z,86.00
2023-02-11T18:56:50.143Z,85.90
2023-02-11T18:59:28.041Z,93.50
2023-02-11T19:02:22.075Z,73.90
2023-02-11T19:05:15.791Z,65.80
2023-02-11T19:08:10.269Z,53.30
2023-02-11T19:11:06.842Z,47.10
2023-02-11T19:13:59.626Z,45.70
2023-02-11T19:16:57.458Z,42.40
2023-02-11T19:19:50.563Z,44.30
2023-02-11T19:22:44.958Z,39.50
2023-02-11T19:25:37.946Z,43.90
2023-02-11T19:28:33.202Z,42.00
2023-02-11T19:31:16.449Z,45.20
2023-02-11T19:34:09.453Z,52.80
2023-02-11T19:37:02.296Z,51.50
2023-02-11T19:39:55.379Z,46.20
2023-02-11T19:42:48.365Z,45.40
2023-02-11T19:45:41.561Z,44.50
2023-02-11T19:48:27.142Z,52.10
2023-02-11T19:51:20.729Z,41.40
2023-02-11T19:54:13.617Z,43.10
2023-02-11T19:57:06.833Z,39.80
2023-02-11T20:00:01.503Z,42.80
2023-02-11T20:02:54.444Z,38.70
2023-02-11T20:05:40.361Z,36.30
2023-02-11T20:08:33.548Z,44.40
2023-02-11T20:11:28.254Z,38.00
2023-02-11T20:14:12.921Z,42.40
2023-02-11T20:17:08.158Z,43.10
2023-02-11T20:20:01.360Z,46.70
2023-02-11T20:22:36.792Z,44.20
2023-02-11T20:25:17.850Z,47.30
2023-02-11T20:27:54.088Z,43.10
2023-02-11T20:30:34.741Z,40.00
2023-02-11T20:33:28.594Z,43.60
2023-02-11T20:36:16.697Z,40.20
2023-02-11T20:39:17.245Z,44.10
2023-02-11T20:42:14.431Z,42.70
2023-02-11T20:45:09.337Z,42.80
2023-02-11T20:48:02.211Z,36.30
2023-02-11T20:50:54.223Z,37.50
2023-02-11T20:53:50.034Z,40.20
2023-02-11T20:56:45.502Z,39.20
2023-02-11T20:59:40.006Z,35.50
2023-02-11T21:02:33.039Z,35.70
2023-02-11T21:05:25.863Z,35.30
2023-02-11T21:08:19.366Z,40.70
2023-02-11T21:11:12.547Z,42.00
2023-02-11T21:14:06.065Z,41.80
2023-02-11T21:16:59.345Z,40.80
2023-02-11T21:19:52.828Z,38.80
2023-02-11T21:22:38.436Z,36.70
2023-02-11T21:25:32.618Z,39.20
2023-02-11T21:28:27.382Z,37.40
2023-02-11T21:31:25.115Z,38.90
2023-02-11T21:34:17.991Z,38.20
2023-02-11T21:37:09.516Z,37.50
2023-02-11T21:40:02.427Z,37.70
2023-02-11T21:42:56.865Z,40.20
2023-02-11T21:45:51.712Z,36.10
2023-02-11T21:48:44.735Z,36.80
2023-02-11T21:51:38.085Z,36.30
2023-02-11T21:54:33.794Z,36.20
2023-02-11T21:57:26.559Z,34.00
2023-02-11T22:00:21.209Z,36.80
2023-02-11T22:03:15.029Z,35.60
2023-02-11T22:06:01.597Z,35.40
2023-02-11T22:08:55.105Z,35.10
2023-02-11T22:11:49.372Z,36.80
2023-02-11T22:14:42.203Z,34.50
2023-02-11T22:17:36.277Z,35.80
2023-02-11T22:20:29.312Z,34.40
2023-02-11T22:23:22.623Z,36.00
2023-02-11T22:26:17.651Z,36.40
2023-02-11T22:29:10.916Z,34.10
2023-02-11T22:32:03.833Z,34.60
2023-02-11T22:34:46.004Z,34.80
2023-02-11T22:37:38.808Z,34.00
2023-02-11T22:40:31.759Z,35.80
2023-02-11T22:43:24.755Z,34.60
2023-02-11T22:46:20.573Z,36.30
2023-02-11T22:49:15.707Z,36.80
2023-02-11T22:52:08.752Z,33.50
2023-02-11T22:55:01.656Z,31.70
2023-02-11T22:57:54.430Z,32.80
2023-02-11T23:00:47.275Z,31.00
2023-02-11T23:03:40.486Z,30.70
2023-02-11T23:06:34.396Z,31.30
2023-02-11T23:09:28.363Z,32.00
2023-02-11T23:12:21.426Z,31.20
2023-02-11T23:15:15.312Z,30.40
2023-02-11T23:18:08.696Z,30.60
2023-02-11T23:21:06.813Z,30.20
2023-02-11T23:26:51.456Z,31.50
2023-02-11T23:29:44.293Z,29.10
2023-02-11T23:32:41.019Z,29.50
2023-02-11T23:35:34.189Z,30.60
2023-02-11T23:38:28.815Z,29.00
2023-02-11T23:41:22.237Z,27.80
2023-02-11T23:44:17.806Z,27.90
2023-02-11T23:47:10.628Z,31.10
2023-02-11T23:50:05.184Z,29.50
2023-02-11T23:52:50.961Z,28.90
2023-02-11T23:55:45.806Z,30.90
2023-02-11T23:58:39.030Z,29.50
